createdAt,value
2022-08-28T00:00:58.904Z,101658.18
2022-08-28T00:03:12.571Z,101661.35
2022-08-28T00:05:28.123Z,101655.61
2022-08-28T00:07:44.368Z,101652.71
2022-08-28T00:10:00.703Z,101649.36
2022-08-28T00:12:14.387Z,101649.74
2022-08-28T00:14:28.450Z,101645.48
2022-08-28T00:16:41.784Z,101645.95
2022-08-28T00:18:54.831Z,101646.79
2022-08-28T00:21:08.291Z,101640.13
2022-08-28T00:23:21.954Z,101648.08
2022-08-28T00:25:36.915Z,101650.17
2022-08-28T00:27:58.822Z,101648.66
2022-08-28T00:30:14.099Z,101651.07
2022-08-28T00:32:27.099Z,101655.13
2022-08-28T00:34:40.311Z,101653.58
2022-08-28T00:36:53.488Z,101656.05
2022-08-28T00:39:07.407Z,101652.67
2022-08-28T00:41:24.776Z,101655.27
2022-08-28T00:43:43.812Z,101651.58
2022-08-28T00:45:57.093Z,101652.77
2022-08-28T00:48:10.730Z,101656.90
2022-08-28T00:50:27.772Z,101656.55
2022-08-28T00:52:41.546Z,101657.35
2022-08-28T00:54:59.858Z,101661.02
2022-08-28T00:57:18.270Z,101669.77
2022-08-28T00:59:32.008Z,101666.15
2022-08-28T01:01:45.814Z,101664.27
2022-08-28T01:03:59.203Z,101666.95
2022-08-28T01:06:13.085Z,101672.40
2022-08-28T01:08:26.307Z,101676.67
2022-08-28T01:10:45.869Z,101677.23
2022-08-28T01:13:00.746Z,101676.63
2022-08-28T01:15:18.739Z,101676.73
2022-08-28T01:17:34.477Z,101674.27
2022-08-28T01:19:58.246Z,101676.05
2022-08-28T01:22:23.129Z,101677.22
2022-08-28T01:24:38.513Z,101680.88
2022-08-28T01:26:51.636Z,101675.33
2022-08-28T01:29:05.203Z,101678.68
2022-08-28T01:31:20.382Z,101679.27
2022-08-28T01:33:33.415Z,101679.49
2022-08-28T01:35:50.286Z,101680.17
2022-08-28T01:38:04.352Z,101679.59
2022-08-28T01:40:21.399Z,101680.88
2022-08-28T01:42:34.479Z,101681.98
2022-08-28T01:44:47.664Z,101683.00
2022-08-28T01:47:02.206Z,101675.15
2022-08-28T01:49:15.668Z,101675.71
2022-08-28T01:51:28.671Z,101672.70
2022-08-28T01:53:48.179Z,101667.73
2022-08-28T01:56:04.621Z,101665.45
2022-08-28T01:58:18.329Z,101664.73
2022-08-28T02:00:32.117Z,101664.83
2022-08-28T02:02:45.153Z,101661.88
2022-08-28T02:04:58.547Z,101659.95
2022-08-28T02:07:11.653Z,101658.09
2022-08-28T02:09:24.648Z,101656.46
2022-08-28T02:11:37.847Z,101651.73
2022-08-28T02:13:56.460Z,101656.40
2022-08-28T02:16:12.004Z,101655.06
2022-08-28T02:18:25.584Z,101652.04
2022-08-28T02:20:38.836Z,101652.59
2022-08-28T02:22:53.102Z,101657.17
2022-08-28T02:25:06.757Z,101654.73
2022-08-28T02:27:20.039Z,101658.55
2022-08-28T02:29:33.109Z,101656.36
2022-08-28T02:31:46.084Z,101648.83
2022-08-28T02:33:59.160Z,101647.16
2022-08-28T02:36:30.865Z,101649.38
2022-08-28T02:38:44.647Z,101648.63
2022-08-28T02:40:57.901Z,101649.57
2022-08-28T02:43:11.037Z,101648.80
2022-08-28T02:45:24.579Z,101649.08
2022-08-28T02:47:37.553Z,101649.84
2022-08-28T02:49:51.093Z,101642.41
2022-08-28T02:52:04.359Z,101639.64
2022-08-28T02:54:18.803Z,101641.21
2022-08-28T02:56:32.229Z,101647.29
2022-08-28T02:58:46.318Z,101653.29
2022-08-28T03:00:59.640Z,101650.70
2022-08-28T03:03:12.743Z,101650.17
2022-08-28T03:05:28.118Z,101646.00
2022-08-28T03:07:41.480Z,101647.52
2022-08-28T03:09:54.650Z,101645.66
2022-08-28T03:12:08.162Z,101648.36
2022-08-28T03:14:21.936Z,101645.92
2022-08-28T03:16:35.629Z,101643.30
2022-08-28T03:18:50.348Z,101641.05
2022-08-28T03:21:04.418Z,101638.72
2022-08-28T03:23:29.823Z,101640.80
2022-08-28T03:25:43.006Z,101641.52
2022-08-28T03:27:56.520Z,101640.63
2022-08-28T03:30:11.509Z,101643.11
2022-08-28T03:32:24.724Z,101643.66
2022-08-28T03:34:42.528Z,101641.90
2022-08-28T03:36:55.628Z,101639.98
2022-08-28T03:39:10.415Z,101646.27
2022-08-28T03:41:26.477Z,101645.48
2022-08-28T03:43:39.648Z,101643.77
2022-08-28T03:46:01.816Z,101641.98
2022-08-28T03:48:14.967Z,101647.68
2022-08-28T03:50:28.550Z,101647.64
2022-08-28T03:52:43.004Z,101645.83
2022-08-28T03:54:56.401Z,101649.17
2022-08-28T03:57:09.654Z,101651.05
2022-08-28T03:59:26.618Z,101649.52
2022-08-28T04:01:45.011Z,101648.79
2022-08-28T04:03:58.191Z,101650.23
2022-08-28T04:06:11.776Z,101656.18
2022-08-28T04:08:26.071Z,101655.06
2022-08-28T04:10:39.406Z,101656.48
2022-08-28T04:12:52.545Z,101658.88
2022-08-28T04:15:07.000Z,101662.50
2022-08-28T04:17:21.188Z,101660.75
2022-08-28T04:19:34.461Z,101664.25
2022-08-28T04:21:47.827Z,101666.09
2022-08-28T04:24:01.041Z,101670.99
2022-08-28T04:26:15.350Z,101672.00
2022-08-28T04:28:29.046Z,101675.77
2022-08-28T04:30:43.749Z,101671.89
2022-08-28T04:32:56.823Z,101672.27
2022-08-28T04:35:11.672Z,101674.95
2022-08-28T04:37:24.947Z,101677.90
2022-08-28T04:39:41.156Z,101677.84
2022-08-28T04:41:55.112Z,101677.44
2022-08-28T04:44:08.702Z,101676.27
2022-08-28T04:46:21.896Z,101674.44
2022-08-28T04:48:35.154Z,101681.28
2022-08-28T04:50:49.328Z,101684.48
2022-08-28T04:53:02.449Z,101679.47
2022-08-28T04:55:18.305Z,101672.71
2022-08-28T04:57:46.925Z,101674.58
2022-08-28T05:00:00.028Z,101670.95
2022-08-28T05:02:13.303Z,101672.94
2022-08-28T05:04:28.142Z,101669.90
2022-08-28T05:06:44.571Z,101665.73
2022-08-28T05:08:57.793Z,101669.65
2022-08-28T05:11:33.215Z,101680.77
2022-08-28T05:13:47.224Z,101679.46
2022-08-28T05:16:00.346Z,101677.57
2022-08-28T05:18:13.596Z,101677.66
2022-08-28T05:20:27.136Z,101676.39
2022-08-28T05:22:40.482Z,101674.05
2022-08-28T05:24:53.664Z,101677.30
2022-08-28T05:27:06.827Z,101672.95
2022-08-28T05:29:20.339Z,101674.20
2022-08-28T05:31:36.259Z,101671.56
2022-08-28T05:33:49.735Z,101672.64
2022-08-28T05:36:07.842Z,101670.50
2022-08-28T05:38:21.789Z,101668.70
2022-08-28T05:40:35.089Z,101667.05
2022-08-28T05:42:48.807Z,101668.95
2022-08-28T05:45:02.494Z,101666.33
2022-08-28T05:47:16.465Z,101666.08
2022-08-28T05:49:34.594Z,101668.30
2022-08-28T05:51:48.816Z,101669.38
2022-08-28T05:54:02.477Z,101670.48
2022-08-28T05:56:17.368Z,101670.98
2022-08-28T05:58:33.607Z,101668.48
2022-08-28T06:00:46.677Z,101672.23
2022-08-28T06:03:00.366Z,101671.45
2022-08-28T06:05:14.309Z,101668.30
2022-08-28T06:07:27.852Z,101668.08
2022-08-28T06:09:40.980Z,101669.71
2022-08-28T06:11:54.459Z,101660.54
2022-08-28T06:14:10.831Z,101665.50
2022-08-28T06:16:24.577Z,101662.28
2022-08-28T06:18:37.578Z,101660.09
2022-08-28T06:20:51.741Z,101659.64
2022-08-28T06:23:04.972Z,101659.48
2022-08-28T06:25:18.238Z,101665.43
2022-08-28T06:27:32.400Z,101667.52
2022-08-28T06:29:45.896Z,101665.05
2022-08-28T06:32:02.101Z,101662.27
2022-08-28T06:34:15.535Z,101662.95
2022-08-28T06:36:29.853Z,101659.18
2022-08-28T06:38:47.636Z,101659.82
2022-08-28T06:41:01.419Z,101655.81
2022-08-28T06:43:14.340Z,101656.70
2022-08-28T06:45:27.444Z,101653.28
2022-08-28T06:47:40.394Z,101654.91
2022-08-28T06:49:53.491Z,101650.81
2022-08-28T06:52:06.703Z,101652.11
2022-08-28T06:54:22.908Z,101651.96
2022-08-28T06:56:37.153Z,101649.74
2022-08-28T06:58:51.830Z,101649.25
2022-08-28T07:01:14.521Z,101644.08
2022-08-28T07:03:27.537Z,101645.35
2022-08-28T07:05:40.802Z,101644.70
2022-08-28T07:07:53.937Z,101641.71
2022-08-28T07:10:07.374Z,101640.56
2022-08-28T07:12:22.264Z,101637.69
2022-08-28T07:14:35.234Z,101631.75
2022-08-28T07:16:48.259Z,101630.14
2022-08-28T07:19:03.875Z,101627.31
2022-08-28T07:21:17.113Z,101624.60
2022-08-28T07:23:30.245Z,101624.88
2022-08-28T07:25:45.388Z,101624.46
2022-08-28T07:27:58.365Z,101623.04
2022-08-28T07:30:14.422Z,101627.02
2022-08-28T07:32:27.470Z,101625.46
2022-08-28T07:34:43.875Z,101623.84
2022-08-28T07:36:57.421Z,101623.87
2022-08-28T07:39:11.157Z,101624.58
2022-08-28T07:41:26.546Z,101622.02
2022-08-28T07:43:55.883Z,101624.87
2022-08-28T07:46:12.604Z,101626.25
2022-08-28T07:48:26.058Z,101626.56
2022-08-28T07:50:39.158Z,101621.89
2022-08-28T07:52:54.455Z,101621.08
2022-08-28T07:55:09.908Z,101621.98
2022-08-28T07:57:23.321Z,101621.45
2022-08-28T07:59:37.208Z,101622.23
2022-08-28T08:01:52.501Z,101620.27
2022-08-28T08:04:05.526Z,101617.11
2022-08-28T08:06:18.649Z,101613.95
2022-08-28T08:08:32.344Z,101611.31
2022-08-28T08:10:45.261Z,101613.08
2022-08-28T08:12:58.968Z,101615.03
2022-08-28T08:15:13.246Z,101614.27
2022-08-28T08:17:26.501Z,101615.13
2022-08-28T08:19:39.742Z,101614.10
2022-08-28T08:21:55.063Z,101609.92
2022-08-28T08:24:09.521Z,101615.45
2022-08-28T08:26:24.484Z,101613.25
2022-08-28T08:28:38.543Z,101613.18
2022-08-28T08:30:51.611Z,101608.52
2022-08-28T08:33:04.771Z,101606.29
2022-08-28T08:35:18.459Z,101607.58
2022-08-28T08:37:31.430Z,101606.61
2022-08-28T08:39:46.901Z,101608.41
2022-08-28T08:42:02.723Z,101608.84
2022-08-28T08:44:28.031Z,101608.14
2022-08-28T08:46:50.574Z,101607.02
2022-08-28T08:49:05.779Z,101605.20
2022-08-28T08:51:28.129Z,101606.23
2022-08-28T08:53:47.694Z,101605.15
2022-08-28T08:56:04.172Z,101601.57
2022-08-28T08:58:23.438Z,101599.02
2022-08-28T09:00:40.804Z,101600.16
2022-08-28T09:03:00.246Z,101599.14
2022-08-28T09:05:20.000Z,101598.60
2022-08-28T09:07:39.938Z,101601.27
2022-08-28T09:09:55.408Z,101597.75
2022-08-28T09:12:10.975Z,101596.54
2022-08-28T09:14:31.021Z,101595.29
2022-08-28T09:16:48.232Z,101596.14
2022-08-28T09:19:03.276Z,101593.29
2022-08-28T09:21:29.187Z,101591.36
2022-08-28T09:23:42.532Z,101590.06
2022-08-28T09:26:03.391Z,101588.44
2022-08-28T09:28:18.382Z,101587.95
2022-08-28T09:30:38.686Z,101584.94
2022-08-28T09:33:03.932Z,101583.77
2022-08-28T09:35:29.080Z,101578.20
2022-08-28T09:37:43.694Z,101576.63
2022-08-28T09:40:16.755Z,101579.55
2022-08-28T09:42:46.426Z,101573.64
2022-08-28T09:45:09.530Z,101573.71
2022-08-28T09:47:46.329Z,101570.52
2022-08-28T09:50:17.552Z,101575.36
2022-08-28T09:52:30.501Z,101577.02
2022-08-28T09:54:46.689Z,101578.47
2022-08-28T09:57:00.274Z,101580.46
2022-08-28T09:59:16.830Z,101585.17
2022-08-28T10:01:45.212Z,101588.85
2022-08-28T10:04:05.462Z,101585.12
2022-08-28T10:06:27.523Z,101585.38
2022-08-28T10:08:56.593Z,101582.73
2022-08-28T10:11:17.308Z,101580.59
2022-08-28T10:13:38.562Z,101579.21
2022-08-28T10:16:06.648Z,101579.91
2022-08-28T10:18:40.394Z,101577.63
2022-08-28T10:21:04.182Z,101575.17
2022-08-28T10:23:29.474Z,101569.52
2022-08-28T10:25:49.150Z,101566.73
2022-08-28T10:28:21.262Z,101568.29
2022-08-28T10:30:39.061Z,101571.09
2022-08-28T10:33:22.576Z,101568.44
2022-08-28T10:35:47.662Z,101560.84
2022-08-28T10:38:06.386Z,101562.50
2022-08-28T10:40:25.241Z,101564.13
2022-08-28T10:42:41.866Z,101566.41
2022-08-28T10:44:59.177Z,101564.41
2022-08-28T10:47:16.221Z,101571.67
2022-08-28T10:49:33.564Z,101576.02
2022-08-28T10:51:51.352Z,101577.23
2022-08-28T10:54:09.707Z,101580.45
2022-08-28T10:56:25.204Z,101581.67
2022-08-28T10:58:41.013Z,101580.63
2022-08-28T11:00:55.150Z,101578.95
2022-08-28T11:03:27.031Z,101577.82
2022-08-28T11:05:53.806Z,101577.34
2022-08-28T11:08:12.227Z,101579.10
2022-08-28T11:10:42.919Z,101580.66
2022-08-28T11:12:56.985Z,101578.48
2022-08-28T11:15:40.177Z,101580.92
2022-08-28T11:17:53.503Z,101576.32
2022-08-28T11:20:19.049Z,101578.02
2022-08-28T11:22:37.335Z,101578.64
2022-08-28T11:25:03.297Z,101578.04
2022-08-28T11:27:34.430Z,101578.18
2022-08-28T11:30:30.439Z,101582.18
2022-08-28T11:33:02.891Z,101585.21
2022-08-28T11:35:51.458Z,101582.41
2022-08-28T11:38:04.577Z,101585.89
2022-08-28T11:40:45.330Z,101588.08
2022-08-28T11:43:19.149Z,101587.54
2022-08-28T11:46:15.071Z,101583.02
2022-08-28T11:48:56.243Z,101585.85
2022-08-28T11:51:14.856Z,101593.20
2022-08-28T11:53:43.032Z,101589.83
2022-08-28T11:56:12.342Z,101591.49
2022-08-28T11:58:32.781Z,101590.17
2022-08-28T12:01:03.964Z,101589.08
2022-08-28T12:03:19.114Z,101586.85
2022-08-28T12:05:58.562Z,101584.75
2022-08-28T12:08:12.639Z,101585.27
2022-08-28T12:11:01.394Z,101583.27
2022-08-28T12:13:34.953Z,101588.97
2022-08-28T12:16:05.530Z,101587.95
2022-08-28T12:19:00.517Z,101592.50
2022-08-28T12:21:21.355Z,101594.88
2022-08-28T12:23:44.530Z,101590.86
2022-08-28T12:26:06.425Z,101591.10
2022-08-28T12:28:26.281Z,101590.24
2022-08-28T12:30:48.197Z,101590.70
2022-08-28T12:33:06.784Z,101592.15
2022-08-28T12:35:26.037Z,101590.37
2022-08-28T12:37:52.016Z,101591.20
2022-08-28T12:40:11.614Z,101588.54
2022-08-28T12:42:27.662Z,101591.33
2022-08-28T12:44:40.687Z,101589.20
2022-08-28T12:46:53.834Z,101588.75
2022-08-28T12:49:09.074Z,101589.30
2022-08-28T12:51:26.734Z,101587.17
2022-08-28T12:53:48.137Z,101587.12
2022-08-28T12:56:01.064Z,101589.14
2022-08-28T12:58:31.008Z,101584.19
2022-08-28T13:00:56.939Z,101588.34
2022-08-28T13:03:10.661Z,101587.77
2022-08-28T13:05:37.031Z,101587.87
2022-08-28T13:07:54.246Z,101588.83
2022-08-28T13:10:10.395Z,101588.29
2022-08-28T13:12:55.381Z,101586.59
2022-08-28T13:15:03.330Z,101591.30
2022-08-28T13:17:18.657Z,101592.48
2022-08-28T13:19:35.932Z,101591.83
2022-08-28T13:22:02.924Z,101592.98
2022-08-28T13:24:44.723Z,101588.02
2022-08-28T13:27:08.648Z,101585.83
2022-08-28T13:29:27.071Z,101589.15
2022-08-28T13:31:41.761Z,101589.79
2022-08-28T13:34:12.431Z,101592.88
2022-08-28T13:36:29.532Z,101591.54
2022-08-28T13:38:42.526Z,101594.14
2022-08-28T13:40:59.123Z,101591.26
2022-08-28T13:43:14.818Z,101590.48
2022-08-28T13:45:29.757Z,101588.25
2022-08-28T13:47:55.277Z,101592.94
2022-08-28T13:50:08.849Z,101592.80
2022-08-28T13:52:22.161Z,101594.34
2022-08-28T13:54:35.382Z,101595.65
2022-08-28T13:56:48.557Z,101596.64
2022-08-28T13:59:01.442Z,101594.70
2022-08-28T14:01:15.137Z,101597.88
2022-08-28T14:03:42.372Z,101600.59
2022-08-28T14:05:55.531Z,101598.90
2022-08-28T14:08:08.966Z,101602.07
2022-08-28T14:10:22.763Z,101604.73
2022-08-28T14:12:36.380Z,101606.05
2022-08-28T14:14:50.029Z,101609.13
2022-08-28T14:17:03.635Z,101608.77
2022-08-28T14:19:16.840Z,101607.30
2022-08-28T14:21:29.854Z,101609.63
2022-08-28T14:23:43.016Z,101611.70
2022-08-28T14:25:56.439Z,101614.11
2022-08-28T14:28:09.569Z,101611.79
2022-08-28T14:30:23.715Z,101612.41
2022-08-28T14:32:37.020Z,101608.76
2022-08-28T14:34:51.826Z,101608.61
2022-08-28T14:37:04.843Z,101610.57
2022-08-28T14:39:19.085Z,101612.02
2022-08-28T14:41:32.682Z,101607.59
2022-08-28T14:43:45.791Z,101604.15
2022-08-28T14:45:59.089Z,101598.13
2022-08-28T14:48:12.202Z,101595.95
2022-08-28T14:50:25.327Z,101601.41
2022-08-28T14:52:41.757Z,101602.09
2022-08-28T14:54:54.747Z,101599.31
2022-08-28T14:57:07.914Z,101599.41
2022-08-28T14:59:24.472Z,101602.11
2022-08-28T15:01:41.067Z,101601.56
2022-08-28T15:03:54.314Z,101600.52
2022-08-28T15:06:12.255Z,101600.70
2022-08-28T15:08:25.240Z,101601.65
2022-08-28T15:10:38.208Z,101598.42
2022-08-28T15:12:51.230Z,101595.79
2022-08-28T15:15:05.480Z,101598.55
2022-08-28T15:17:18.515Z,101595.22
2022-08-28T15:19:31.471Z,101598.33
2022-08-28T15:21:47.731Z,101598.60
2022-08-28T15:24:02.508Z,101598.30
2022-08-28T15:26:15.818Z,101595.00
2022-08-28T15:28:29.111Z,101595.14
2022-08-28T15:30:42.996Z,101598.02
2022-08-28T15:32:56.014Z,101601.90
2022-08-28T15:35:10.298Z,101596.70
2022-08-28T15:37:23.367Z,101595.15
2022-08-28T15:39:52.675Z,101591.51
2022-08-28T15:42:06.710Z,101589.69
2022-08-28T15:44:19.780Z,101590.20
2022-08-28T15:46:34.889Z,101592.77
2022-08-28T15:48:49.369Z,101588.31
2022-08-28T15:51:02.436Z,101586.84
2022-08-28T15:53:17.769Z,101585.38
2022-08-28T15:55:31.443Z,101580.70
2022-08-28T15:57:44.500Z,101581.84
2022-08-28T15:59:57.567Z,101580.68
2022-08-28T16:02:10.850Z,101578.39
2022-08-28T16:04:23.885Z,101577.74
2022-08-28T16:06:37.867Z,101582.08
2022-08-28T16:08:51.183Z,101582.57
2022-08-28T16:11:04.321Z,101583.85
2022-08-28T16:13:17.276Z,101587.86
2022-08-28T16:15:30.581Z,101594.81
2022-08-28T16:17:43.592Z,101593.80
2022-08-28T16:19:56.726Z,101598.05
2022-08-28T16:22:09.950Z,101602.11
2022-08-28T16:24:22.862Z,101603.30
2022-08-28T16:26:36.093Z,101604.62
2022-08-28T16:28:49.402Z,101603.39
2022-08-28T16:31:02.556Z,101604.97
2022-08-28T16:33:23.285Z,101595.77
2022-08-28T16:35:37.055Z,101597.88
2022-08-28T16:37:50.253Z,101595.56
2022-08-28T16:40:04.701Z,101597.23
2022-08-28T16:42:18.465Z,101599.25
2022-08-28T16:44:31.805Z,101597.26
2022-08-28T16:46:45.401Z,101596.30
2022-08-28T16:48:59.110Z,101599.45
2022-08-28T16:51:12.590Z,101599.96
2022-08-28T16:53:27.121Z,101600.63
2022-08-28T16:55:41.697Z,101600.52
2022-08-28T16:57:55.019Z,101602.82
2022-08-28T17:00:09.195Z,101606.42
2022-08-28T17:02:26.651Z,101609.55
2022-08-28T17:04:39.810Z,101610.64
2022-08-28T17:06:53.450Z,101614.02
2022-08-28T17:09:09.122Z,101608.43
2022-08-28T17:11:22.932Z,101612.45
2022-08-28T17:13:35.881Z,101611.02
2022-08-28T17:15:49.110Z,101615.41
2022-08-28T17:18:02.444Z,101613.87
2022-08-28T17:20:30.222Z,101616.81
2022-08-28T17:22:43.224Z,101611.68
2022-08-28T17:24:56.257Z,101611.42
2022-08-28T17:27:09.615Z,101606.73
2022-08-28T17:29:22.691Z,101604.65
2022-08-28T17:31:35.924Z,101603.20
2022-08-28T17:33:50.264Z,101602.23
2022-08-28T17:36:03.828Z,101603.37
2022-08-28T17:38:16.770Z,101598.48
2022-08-28T17:40:30.123Z,101601.14
2022-08-28T17:42:43.294Z,101601.88
2022-08-28T17:44:56.538Z,101597.34
2022-08-28T17:47:09.945Z,101599.34
2022-08-28T17:49:23.622Z,101598.17
2022-08-28T17:51:42.388Z,101596.08
2022-08-28T17:53:57.042Z,101595.53
2022-08-28T17:56:12.670Z,101593.48
2022-08-28T17:58:25.706Z,101592.56
2022-08-28T18:00:38.873Z,101592.11
2022-08-28T18:02:53.205Z,101589.95
2022-08-28T18:05:07.095Z,101595.48
2022-08-28T18:07:20.219Z,101593.64
2022-08-28T18:09:36.969Z,101594.54
2022-08-28T18:11:50.430Z,101599.67
2022-08-28T18:14:03.429Z,101599.36
2022-08-28T18:16:16.501Z,101597.41
2022-08-28T18:18:36.334Z,101601.30
2022-08-28T18:20:49.765Z,101605.61
2022-08-28T18:23:03.559Z,101605.73
2022-08-28T18:25:30.768Z,101599.73
2022-08-28T18:27:43.785Z,101597.94
2022-08-28T18:29:56.745Z,101597.48
2022-08-28T18:32:10.928Z,101598.92
2022-08-28T18:34:24.100Z,101595.76
2022-08-28T18:36:42.691Z,101593.52
2022-08-28T18:38:56.935Z,101590.05
2022-08-28T18:41:12.062Z,101588.23
2022-08-28T18:43:25.216Z,101588.25
2022-08-28T18:45:38.541Z,101583.72
2022-08-28T18:47:51.717Z,101584.84
2022-08-28T18:50:05.172Z,101583.89
2022-08-28T18:52:18.806Z,101585.18
2022-08-28T18:54:32.440Z,101585.65
2022-08-28T18:56:49.101Z,101586.88
2022-08-28T18:59:03.468Z,101585.42
2022-08-28T19:01:16.953Z,101585.38
2022-08-28T19:03:30.093Z,101584.34
2022-08-28T19:05:43.949Z,101584.05
2022-08-28T19:07:57.096Z,101583.52
2022-08-28T19:10:32.145Z,101584.56
2022-08-28T19:12:46.922Z,101582.10
2022-08-28T19:15:01.482Z,101577.61
2022-08-28T19:17:19.038Z,101573.05
2022-08-28T19:19:34.962Z,101568.57
2022-08-28T19:21:47.929Z,101568.61
2022-08-28T19:24:00.874Z,101563.00
2022-08-28T19:26:14.237Z,101565.78
2022-08-28T19:28:27.170Z,101566.73
2022-08-28T19:30:40.660Z,101565.59
2022-08-28T19:32:54.035Z,101561.84
2022-08-28T19:35:07.262Z,101556.91
2022-08-28T19:37:20.332Z,101555.73
2022-08-28T19:39:33.714Z,101554.27
2022-08-28T19:41:47.355Z,101555.88
2022-08-28T19:44:00.425Z,101555.26
2022-08-28T19:46:19.809Z,101555.40
2022-08-28T19:48:33.976Z,101555.39
2022-08-28T19:50:47.236Z,101556.94
2022-08-28T19:53:00.216Z,101559.35
2022-08-28T19:55:18.832Z,101551.27
2022-08-28T19:57:31.866Z,101555.59
2022-08-28T19:59:45.029Z,101556.81
2022-08-28T20:01:58.110Z,101554.33
2022-08-28T20:04:14.498Z,101551.70
2022-08-28T20:06:27.574Z,101556.14
2022-08-28T20:08:40.878Z,101552.56
2022-08-28T20:10:55.098Z,101552.70
2022-08-28T20:13:08.119Z,101553.73
2022-08-28T20:15:22.092Z,101552.02
2022-08-28T20:17:35.411Z,101550.32
2022-08-28T20:19:59.693Z,101548.79
2022-08-28T20:22:15.992Z,101543.90
2022-08-28T20:24:29.302Z,101541.42
2022-08-28T20:26:42.741Z,101542.61
2022-08-28T20:28:56.333Z,101547.07
2022-08-28T20:31:13.623Z,101541.73
2022-08-28T20:33:26.766Z,101547.00
2022-08-28T20:35:40.119Z,101550.69
2022-08-28T20:37:53.216Z,101554.92
2022-08-28T20:40:09.931Z,101551.38
2022-08-28T20:42:23.069Z,101553.17
2022-08-28T20:44:36.090Z,101548.77
2022-08-28T20:46:51.464Z,101542.70
2022-08-28T20:49:07.028Z,101538.79
2022-08-28T20:51:40.146Z,101537.41
2022-08-28T20:53:55.763Z,101536.67
2022-08-28T20:56:11.114Z,101526.85
2022-08-28T20:58:24.202Z,101525.83
2022-08-28T21:00:37.227Z,101520.33
2022-08-28T21:02:50.259Z,101523.48
2022-08-28T21:05:04.305Z,101520.30
2022-08-28T21:07:18.754Z,101520.39
2022-08-28T21:09:35.865Z,101515.39
2022-08-28T21:12:04.913Z,101510.61
2022-08-28T21:14:18.003Z,101506.30
2022-08-28T21:16:31.424Z,101501.54
2022-08-28T21:18:59.277Z,101499.89
2022-08-28T21:21:17.760Z,101503.81
2022-08-28T21:23:33.413Z,101503.63
2022-08-28T21:25:48.383Z,101504.41
2022-08-28T21:28:04.202Z,101504.86
2022-08-28T21:30:20.237Z,101497.98
2022-08-28T21:32:35.305Z,101503.92
2022-08-28T21:34:48.291Z,101505.23
2022-08-28T21:37:01.678Z,101501.65
2022-08-28T21:39:14.815Z,101501.36
2022-08-28T21:41:27.990Z,101501.42
2022-08-28T21:43:41.417Z,101503.52
2022-08-28T21:46:03.738Z,101502.11
2022-08-28T21:48:16.778Z,101500.02
2022-08-28T21:50:30.627Z,101503.11
2022-08-28T21:52:44.430Z,101497.57
2022-08-28T21:55:03.178Z,101493.98
2022-08-28T21:57:16.190Z,101493.23
2022-08-28T21:59:32.572Z,101490.07
2022-08-28T22:01:51.241Z,101485.45
2022-08-28T22:04:04.212Z,101483.73
2022-08-28T22:06:19.582Z,101478.86
2022-08-28T22:08:33.062Z,101476.52
2022-08-28T22:10:47.171Z,101472.05
2022-08-28T22:13:00.383Z,101473.60
2022-08-28T22:15:14.213Z,101471.58
2022-08-28T22:17:27.687Z,101471.70
2022-08-28T22:19:40.767Z,101469.00
2022-08-28T22:22:10.200Z,101463.60
2022-08-28T22:24:23.374Z,101464.07
2022-08-28T22:26:36.487Z,101466.19
2022-08-28T22:28:50.026Z,101462.30
2022-08-28T22:31:03.206Z,101457.83
2022-08-28T22:33:19.316Z,101459.00
2022-08-28T22:35:32.789Z,101457.63
2022-08-28T22:37:45.850Z,101458.58
2022-08-28T22:39:59.344Z,101461.20
2022-08-28T22:42:13.165Z,101456.38
2022-08-28T22:44:26.184Z,101452.54
2022-08-28T22:46:39.292Z,101454.48
2022-08-28T22:48:52.383Z,101452.37
2022-08-28T22:51:10.963Z,101449.30
2022-08-28T22:53:24.447Z,101445.92
2022-08-28T22:55:41.372Z,101444.80
2022-08-28T22:57:56.424Z,101445.27
2022-08-28T23:00:12.124Z,101443.77
2022-08-28T23:02:27.159Z,101440.92
2022-08-28T23:04:40.469Z,101440.41
2022-08-28T23:06:53.446Z,101438.02
2022-08-28T23:09:06.976Z,101433.83
2022-08-28T23:11:20.169Z,101433.52
2022-08-28T23:13:34.022Z,101426.30
2022-08-28T23:15:47.472Z,101423.66
2022-08-28T23:18:00.512Z,101423.70
2022-08-28T23:20:18.478Z,101421.95
2022-08-28T23:22:31.595Z,101423.05
2022-08-28T23:24:44.954Z,101420.90
2022-08-28T23:27:09.316Z,101417.77
2022-08-28T23:29:30.856Z,101421.98
2022-08-28T23:31:44.725Z,101419.35
2022-08-28T23:33:58.137Z,101416.12
2022-08-28T23:36:13.327Z,101414.80
2022-08-28T23:38:26.478Z,101412.31
2022-08-28T23:40:40.599Z,101413.73
2022-08-28T23:42:54.496Z,101416.63
2022-08-28T23:45:08.129Z,101412.38
2022-08-28T23:47:21.197Z,101407.38
2022-08-28T23:49:34.267Z,101406.05
2022-08-28T23:51:55.693Z,101406.96
2022-08-28T23:54:08.993Z,101406.58
2022-08-28T23:56:22.092Z,101406.70
2022-08-28T23:58:43.091Z,101406.48
